sensor_id;sensor_type;location;lat;lon;timestamp;temperature;humidity
19652;DHT22;9974;52.146;14.668;2024-02-15T00:01:57;8.70;99.90
19652;DHT22;9974;52.146;14.668;2024-02-15T00:04:22;8.70;99.90
19652;DHT22;9974;52.146;14.668;2024-02-15T00:06:48;8.70;99.90
19652;DHT22;9974;52.146;14.668;2024-02-15T00:09:14;8.70;99.90
19652;DHT22;9974;52.146;14.668;2024-02-15T00:11:39;8.70;99.90
19652;DHT22;9974;52.146;14.668;2024-02-15T00:14:05;8.70;99.90
19652;DHT22;9974;52.146;14.668;2024-02-15T00:16:31;7.60;99.90
19652;DHT22;9974;52.146;14.668;2024-02-15T00:18:56;8.70;99.90
19652;DHT22;9974;52.146;14.668;2024-02-15T00:23:48;8.70;99.90
19652;DHT22;9974;52.146;14.668;2024-02-15T00:26:14;8.70;99.90
19652;DHT22;9974;52.146;14.668;2024-02-15T00:28:43;8.70;99.90
19652;DHT22;9974;52.146;14.668;2024-02-15T00:31:08;8.70;99.90
19652;DHT22;9974;52.146;14.668;2024-02-15T00:33:34;8.70;99.90
19652;DHT22;9974;52.146;14.668;2024-02-15T00:36:02;8.70;99.90
19652;DHT22;9974;52.146;14.668;2024-02-15T00:38:29;8.60;99.90
19652;DHT22;9974;52.146;14.668;2024-02-15T00:40:55;8.60;99.90
19652;DHT22;9974;52.146;14.668;2024-02-15T00:43:20;8.60;99.90
19652;DHT22;9974;52.146;14.668;2024-02-15T00:45:46;8.60;99.90
19652;DHT22;9974;52.146;14.668;2024-02-15T00:48:12;8.60;99.90
19652;DHT22;9974;52.146;14.668;2024-02-15T00:50:37;8.60;99.90
19652;DHT22;9974;52.146;14.668;2024-02-15T00:53:03;8.50;99.90
19652;DHT22;9974;52.146;14.668;2024-02-15T00:55:29;8.60;99.90
19652;DHT22;9974;52.146;14.668;2024-02-15T00:57:54;8.50;99.90
19652;DHT22;9974;52.146;14.668;2024-02-15T01:00:20;8.50;99.90
19652;DHT22;9974;52.146;14.668;2024-02-15T01:02:45;8.50;99.90
19652;DHT22;9974;52.146;14.668;2024-02-15T01:05:11;8.50;99.90
19652;DHT22;9974;52.146;14.668;2024-02-15T01:07:40;8.50;99.90
19652;DHT22;9974;52.146;14.668;2024-02-15T01:10:06;8.50;99.90
19652;DHT22;9974;52.146;14.668;2024-02-15T01:12:32;8.50;99.90
19652;DHT22;9974;52.146;14.668;2024-02-15T01:14:58;8.50;99.90
19652;DHT22;9974;52.146;14.668;2024-02-15T01:17:24;8.50;99.90
19652;DHT22;9974;52.146;14.668;2024-02-15T01:19:49;8.50;99.90
19652;DHT22;9974;52.146;14.668;2024-02-15T01:22:15;8.50;99.90
19652;DHT22;9974;52.146;14.668;2024-02-15T01:24:41;8.50;99.90
19652;DHT22;9974;52.146;14.668;2024-02-15T01:27:07;8.50;99.90
19652;DHT22;9974;52.146;14.668;2024-02-15T01:29:33;8.50;99.90
19652;DHT22;9974;52.146;14.668;2024-02-15T01:31:58;8.50;99.90
19652;DHT22;9974;52.146;14.668;2024-02-15T01:34:24;8.50;99.90
19652;DHT22;9974;52.146;14.668;2024-02-15T01:36:49;8.50;99.90
19652;DHT22;9974;52.146;14.668;2024-02-15T01:39:16;8.50;99.90
19652;DHT22;9974;52.146;14.668;2024-02-15T01:41:46;8.50;99.90
19652;DHT22;9974;52.146;14.668;2024-02-15T01:44:13;8.50;99.90
19652;DHT22;9974;52.146;14.668;2024-02-15T01:46:39;8.50;99.90
19652;DHT22;9974;52.146;14.668;2024-02-15T01:49:05;8.50;99.90
19652;DHT22;9974;52.146;14.668;2024-02-15T01:51:32;8.40;99.90
19652;DHT22;9974;52.146;14.668;2024-02-15T01:56:26;8.40;99.90
19652;DHT22;9974;52.146;14.668;2024-02-15T01:58:53;8.50;99.90
19652;DHT22;9974;52.146;14.668;2024-02-15T02:01:18;8.40;99.90
19652;DHT22;9974;52.146;14.668;2024-02-15T02:03:44;8.40;99.90
19652;DHT22;9974;52.146;14.668;2024-02-15T02:06:10;8.40;99.90
19652;DHT22;9974;52.146;14.668;2024-02-15T02:08:36;8.40;99.90
19652;DHT22;9974;52.146;14.668;2024-02-15T02:11:02;8.40;99.90
19652;DHT22;9974;52.146;14.668;2024-02-15T02:13:29;8.40;99.90
19652;DHT22;9974;52.146;14.668;2024-02-15T02:15:54;8.40;99.90
19652;DHT22;9974;52.146;14.668;2024-02-15T02:18:22;8.40;99.90
19652;DHT22;9974;52.146;14.668;2024-02-15T02:20:49;8.40;99.90
19652;DHT22;9974;52.146;14.668;2024-02-15T02:23:15;8.30;99.90
19652;DHT22;9974;52.146;14.668;2024-02-15T02:25:43;8.30;99.90
19652;DHT22;9974;52.146;14.668;2024-02-15T02:28:09;8.30;99.90
19652;DHT22;9974;52.146;14.668;2024-02-15T02:30:35;8.30;99.90
19652;DHT22;9974;52.146;14.668;2024-02-15T02:33:01;8.30;99.90
19652;DHT22;9974;52.146;14.668;2024-02-15T02:35:27;8.30;99.90
19652;DHT22;9974;52.146;14.668;2024-02-15T02:37:55;8.30;99.90
19652;DHT22;9974;52.146;14.668;2024-02-15T02:40:22;8.40;99.90
19652;DHT22;9974;52.146;14.668;2024-02-15T02:47:40;8.40;99.90
19652;DHT22;9974;52.146;14.668;2024-02-15T02:50:06;8.40;99.90
19652;DHT22;9974;52.146;14.668;2024-02-15T02:52:33;8.40;99.90
19652;DHT22;9974;52.146;14.668;2024-02-15T02:54:59;8.40;99.90
19652;DHT22;9974;52.146;14.668;2024-02-15T02:57:24;8.40;99.90
19652;DHT22;9974;52.146;14.668;2024-02-15T02:59:51;8.40;99.90
19652;DHT22;9974;52.146;14.668;2024-02-15T03:02:16;8.40;99.90
19652;DHT22;9974;52.146;14.668;2024-02-15T03:04:43;8.40;99.90
19652;DHT22;9974;52.146;14.668;2024-02-15T03:07:09;8.50;99.90
19652;DHT22;9974;52.146;14.668;2024-02-15T03:09:34;8.40;99.90
19652;DHT22;9974;52.146;14.668;2024-02-15T03:12:02;8.40;99.90
19652;DHT22;9974;52.146;14.668;2024-02-15T03:14:28;8.40;99.90
19652;DHT22;9974;52.146;14.668;2024-02-15T03:16:56;8.40;99.90
19652;DHT22;9974;52.146;14.668;2024-02-15T03:19:22;8.50;99.90
19652;DHT22;9974;52.146;14.668;2024-02-15T03:21:48;8.50;99.90
19652;DHT22;9974;52.146;14.668;2024-02-15T03:24:13;8.50;99.90
19652;DHT22;9974;52.146;14.668;2024-02-15T03:26:39;8.50;99.90
19652;DHT22;9974;52.146;14.668;2024-02-15T03:29:05;8.50;99.90
19652;DHT22;9974;52.146;14.668;2024-02-15T03:31:33;8.50;99.90
19652;DHT22;9974;52.146;14.668;2024-02-15T03:34:04;8.50;99.90
19652;DHT22;9974;52.146;14.668;2024-02-15T03:36:31;8.50;99.90
19652;DHT22;9974;52.146;14.668;2024-02-15T03:38:56;8.50;99.90
19652;DHT22;9974;52.146;14.668;2024-02-15T03:41:22;8.50;99.90
19652;DHT22;9974;52.146;14.668;2024-02-15T03:43:48;8.60;99.90
19652;DHT22;9974;52.146;14.668;2024-02-15T03:46:13;8.50;99.90
19652;DHT22;9974;52.146;14.668;2024-02-15T03:48:41;8.60;99.90
19652;DHT22;9974;52.146;14.668;2024-02-15T03:51:09;8.60;99.90
19652;DHT22;9974;52.146;14.668;2024-02-15T03:53:34;8.60;99.90
19652;DHT22;9974;52.146;14.668;2024-02-15T03:56:05;8.50;99.90
19652;DHT22;9974;52.146;14.668;2024-02-15T03:58:31;8.50;99.90
19652;DHT22;9974;52.146;14.668;2024-02-15T04:00:58;8.60;99.90
19652;DHT22;9974;52.146;14.668;2024-02-15T04:03:24;8.60;99.90
19652;DHT22;9974;52.146;14.668;2024-02-15T04:05:50;8.60;99.90
19652;DHT22;9974;52.146;14.668;2024-02-15T04:08:15;8.60;99.90
19652;DHT22;9974;52.146;14.668;2024-02-15T04:10:42;8.50;99.90
19652;DHT22;9974;52.146;14.668;2024-02-15T04:13:08;8.50;99.90
19652;DHT22;9974;52.146;14.668;2024-02-15T04:15:33;8.50;99.90
19652;DHT22;9974;52.146;14.668;2024-02-15T04:17:59;8.50;99.90
19652;DHT22;9974;52.146;14.668;2024-02-15T04:20:26;8.50;99.90
19652;DHT22;9974;52.146;14.668;2024-02-15T04:22:52;8.50;99.90
19652;DHT22;9974;52.146;14.668;2024-02-15T04:25:18;8.50;99.90
19652;DHT22;9974;52.146;14.668;2024-02-15T04:27:48;8.50;99.90
19652;DHT22;9974;52.146;14.668;2024-02-15T04:30:14;8.50;99.90
19652;DHT22;9974;52.146;14.668;2024-02-15T04:32:40;8.50;99.90
19652;DHT22;9974;52.146;14.668;2024-02-15T04:35:06;8.50;99.90
19652;DHT22;9974;52.146;14.668;2024-02-15T04:37:32;8.50;99.90
19652;DHT22;9974;52.146;14.668;2024-02-15T04:39:59;8.50;99.90
19652;DHT22;9974;52.146;14.668;2024-02-15T04:42:35;8.50;99.90
19652;DHT22;9974;52.146;14.668;2024-02-15T04:45:09;8.50;99.90
19652;DHT22;9974;52.146;14.668;2024-02-15T04:47:38;8.50;99.90
19652;DHT22;9974;52.146;14.668;2024-02-15T04:50:06;8.50;99.90
19652;DHT22;9974;52.146;14.668;2024-02-15T04:52:32;8.50;99.90
19652;DHT22;9974;52.146;14.668;2024-02-15T04:54:57;8.50;99.90
19652;DHT22;9974;52.146;14.668;2024-02-15T04:57:26;8.50;99.90
19652;DHT22;9974;52.146;14.668;2024-02-15T04:59:53;8.50;99.90
19652;DHT22;9974;52.146;14.668;2024-02-15T05:02:20;8.50;99.90
19652;DHT22;9974;52.146;14.668;2024-02-15T05:04:47;8.60;99.90
19652;DHT22;9974;52.146;14.668;2024-02-15T05:07:12;8.60;99.90
19652;DHT22;9974;52.146;14.668;2024-02-15T05:09:42;8.50;99.90
19652;DHT22;9974;52.146;14.668;2024-02-15T05:12:08;8.60;99.90
19652;DHT22;9974;52.146;14.668;2024-02-15T05:14:33;8.60;99.90
19652;DHT22;9974;52.146;14.668;2024-02-15T05:17:01;8.60;99.90
19652;DHT22;9974;52.146;14.668;2024-02-15T05:19:27;8.60;99.90
19652;DHT22;9974;52.146;14.668;2024-02-15T05:21:52;8.60;99.90
19652;DHT22;9974;52.146;14.668;2024-02-15T05:24:19;8.60;99.90
19652;DHT22;9974;52.146;14.668;2024-02-15T05:26:45;8.70;99.90
19652;DHT22;9974;52.146;14.668;2024-02-15T05:29:17;8.70;99.90
19652;DHT22;9974;52.146;14.668;2024-02-15T05:31:43;8.70;99.90
19652;DHT22;9974;52.146;14.668;2024-02-15T05:34:09;8.70;99.90
19652;DHT22;9974;52.146;14.668;2024-02-15T05:36:36;8.70;99.90
19652;DHT22;9974;52.146;14.668;2024-02-15T05:39:03;8.70;99.90
19652;DHT22;9974;52.146;14.668;2024-02-15T05:41:30;8.70;99.90
19652;DHT22;9974;52.146;14.668;2024-02-15T05:43:55;8.70;99.90
19652;DHT22;9974;52.146;14.668;2024-02-15T05:46:23;8.70;99.90
19652;DHT22;9974;52.146;14.668;2024-02-15T05:48:49;8.70;99.90
19652;DHT22;9974;52.146;14.668;2024-02-15T05:51:14;8.70;99.90
19652;DHT22;9974;52.146;14.668;2024-02-15T05:53:40;8.70;99.90
19652;DHT22;9974;52.146;14.668;2024-02-15T05:58:33;8.80;99.90
19652;DHT22;9974;52.146;14.668;2024-02-15T06:00:59;8.80;99.90
19652;DHT22;9974;52.146;14.668;2024-02-15T06:03:30;8.80;99.90
19652;DHT22;9974;52.146;14.668;2024-02-15T06:05:57;8.80;99.90
19652;DHT22;9974;52.146;14.668;2024-02-15T06:08:24;8.80;99.90
19652;DHT22;9974;52.146;14.668;2024-02-15T06:10:50;8.80;99.90
19652;DHT22;9974;52.146;14.668;2024-02-15T06:13:17;8.80;99.90
19652;DHT22;9974;52.146;14.668;2024-02-15T06:15:42;8.90;99.90
19652;DHT22;9974;52.146;14.668;2024-02-15T06:18:08;8.90;99.90
19652;DHT22;9974;52.146;14.668;2024-02-15T06:20:35;8.90;99.90
19652;DHT22;9974;52.146;14.668;2024-02-15T06:23:02;8.90;99.90
19652;DHT22;9974;52.146;14.668;2024-02-15T06:25:33;9.00;99.90
19652;DHT22;9974;52.146;14.668;2024-02-15T06:27:58;9.00;99.90
19652;DHT22;9974;52.146;14.668;2024-02-15T06:30:30;9.00;99.90
19652;DHT22;9974;52.146;14.668;2024-02-15T06:33:14;9.00;99.90
19652;DHT22;9974;52.146;14.668;2024-02-15T06:35:59;9.00;99.90
19652;DHT22;9974;52.146;14.668;2024-02-15T06:38:47;9.00;99.90
19652;DHT22;9974;52.146;14.668;2024-02-15T06:41:32;11.20;99.90
19652;DHT22;9974;52.146;14.668;2024-02-15T06:43:57;9.00;99.90
19652;DHT22;9974;52.146;14.668;2024-02-15T06:46:23;9.00;99.90
19652;DHT22;9974;52.146;14.668;2024-02-15T06:48:49;9.00;99.90
19652;DHT22;9974;52.146;14.668;2024-02-15T06:51:15;9.00;99.90
19652;DHT22;9974;52.146;14.668;2024-02-15T06:53:40;9.00;99.90
19652;DHT22;9974;52.146;14.668;2024-02-15T06:56:09;9.00;99.90
19652;DHT22;9974;52.146;14.668;2024-02-15T06:58:38;9.00;99.90
19652;DHT22;9974;52.146;14.668;2024-02-15T07:01:05;9.00;99.90
19652;DHT22;9974;52.146;14.668;2024-02-15T07:03:31;9.00;99.90
19652;DHT22;9974;52.146;14.668;2024-02-15T07:05:57;9.10;99.90
19652;DHT22;9974;52.146;14.668;2024-02-15T07:08:23;9.10;99.90
19652;DHT22;9974;52.146;14.668;2024-02-15T07:10:51;9.10;99.90
19652;DHT22;9974;52.146;14.668;2024-02-15T07:13:17;9.10;99.90
19652;DHT22;9974;52.146;14.668;2024-02-15T07:15:44;9.10;99.90
19652;DHT22;9974;52.146;14.668;2024-02-15T07:18:10;9.20;99.90
19652;DHT22;9974;52.146;14.668;2024-02-15T07:20:37;9.20;99.90
19652;DHT22;9974;52.146;14.668;2024-02-15T07:23:05;9.20;99.90
19652;DHT22;9974;52.146;14.668;2024-02-15T07:25:31;9.20;99.90
19652;DHT22;9974;52.146;14.668;2024-02-15T07:27:56;9.30;99.90
19652;DHT22;9974;52.146;14.668;2024-02-15T07:30:22;9.30;99.90
19652;DHT22;9974;52.146;14.668;2024-02-15T07:32:48;9.30;99.90
19652;DHT22;9974;52.146;14.668;2024-02-15T07:35:14;9.30;99.90
19652;DHT22;9974;52.146;14.668;2024-02-15T07:37:54;9.40;99.90
19652;DHT22;9974;52.146;14.668;2024-02-15T07:40:25;9.40;99.90
19652;DHT22;9974;52.146;14.668;2024-02-15T07:42:56;9.40;99.90
19652;DHT22;9974;52.146;14.668;2024-02-15T07:45:22;9.50;99.90
19652;DHT22;9974;52.146;14.668;2024-02-15T07:47:48;9.50;99.90
19652;DHT22;9974;52.146;14.668;2024-02-15T07:50:15;9.60;99.90
19652;DHT22;9974;52.146;14.668;2024-02-15T07:52:45;9.70;99.90
19652;DHT22;9974;52.146;14.668;2024-02-15T07:55:11;9.70;99.90
19652;DHT22;9974;52.146;14.668;2024-02-15T07:57:37;9.70;99.90
19652;DHT22;9974;52.146;14.668;2024-02-15T08:00:04;9.70;99.90
19652;DHT22;9974;52.146;14.668;2024-02-15T08:02:36;9.80;99.90
19652;DHT22;9974;52.146;14.668;2024-02-15T08:05:06;9.90;99.90
19652;DHT22;9974;52.146;14.668;2024-02-15T08:07:41;9.90;99.90
19652;DHT22;9974;52.146;14.668;2024-02-15T08:10:09;9.80;99.90
19652;DHT22;9974;52.146;14.668;2024-02-15T08:12:38;9.90;99.90
19652;DHT22;9974;52.146;14.668;2024-02-15T08:15:07;9.90;99.90
19652;DHT22;9974;52.146;14.668;2024-02-15T08:17:38;9.90;99.90
19652;DHT22;9974;52.146;14.668;2024-02-15T08:20:05;9.40;99.90
19652;DHT22;9974;52.146;14.668;2024-02-15T08:22:32;10.10;99.90
19652;DHT22;9974;52.146;14.668;2024-02-15T08:24:59;10.10;99.90
19652;DHT22;9974;52.146;14.668;2024-02-15T08:27:24;10.20;99.90
19652;DHT22;9974;52.146;14.668;2024-02-15T08:29:51;10.20;99.90
19652;DHT22;9974;52.146;14.668;2024-02-15T08:32:16;10.20;99.90
19652;DHT22;9974;52.146;14.668;2024-02-15T08:34:42;10.30;99.90
19652;DHT22;9974;52.146;14.668;2024-02-15T08:37:07;9.90;99.90
19652;DHT22;9974;52.146;14.668;2024-02-15T08:39:33;10.50;99.90
19652;DHT22;9974;52.146;14.668;2024-02-15T08:41:58;10.70;99.90
19652;DHT22;9974;52.146;14.668;2024-02-15T08:44:24;10.80;99.90
19652;DHT22;9974;52.146;14.668;2024-02-15T08:46:50;10.80;99.90
19652;DHT22;9974;52.146;14.668;2024-02-15T08:49:16;10.70;99.90
19652;DHT22;9974;52.146;14.668;2024-02-15T08:51:41;10.80;99.90
19652;DHT22;9974;52.146;14.668;2024-02-15T08:54:07;10.80;99.90
19652;DHT22;9974;52.146;14.668;2024-02-15T08:56:35;10.80;99.90
19652;DHT22;9974;52.146;14.668;2024-02-15T08:59:00;10.80;99.90
19652;DHT22;9974;52.146;14.668;2024-02-15T09:03:52;10.70;99.90
19652;DHT22;9974;52.146;14.668;2024-02-15T09:06:17;10.70;99.90
19652;DHT22;9974;52.146;14.668;2024-02-15T09:08:43;10.60;99.90
19652;DHT22;9974;52.146;14.668;2024-02-15T09:11:09;10.60;99.90
19652;DHT22;9974;52.146;14.668;2024-02-15T09:13:37;10.60;99.90
19652;DHT22;9974;52.146;14.668;2024-02-15T09:16:04;10.60;99.90
19652;DHT22;9974;52.146;14.668;2024-02-15T09:18:30;10.70;99.90
19652;DHT22;9974;52.146;14.668;2024-02-15T09:20:56;10.70;99.90
19652;DHT22;9974;52.146;14.668;2024-02-15T09:23:21;10.70;99.90
19652;DHT22;9974;52.146;14.668;2024-02-15T09:25:49;10.80;99.90
19652;DHT22;9974;52.146;14.668;2024-02-15T09:28:17;10.80;99.90
19652;DHT22;9974;52.146;14.668;2024-02-15T09:30:48;10.80;99.90
19652;DHT22;9974;52.146;14.668;2024-02-15T09:33:14;10.80;99.90
19652;DHT22;9974;52.146;14.668;2024-02-15T09:35:39;10.90;99.90
19652;DHT22;9974;52.146;14.668;2024-02-15T09:38:05;10.90;99.90
19652;DHT22;9974;52.146;14.668;2024-02-15T09:40:31;11.00;99.90
19652;DHT22;9974;52.146;14.668;2024-02-15T09:42:57;11.00;99.90
19652;DHT22;9974;52.146;14.668;2024-02-15T09:45:22;11.00;99.90
19652;DHT22;9974;52.146;14.668;2024-02-15T09:47:50;11.00;99.90
19652;DHT22;9974;52.146;14.668;2024-02-15T09:50:16;11.20;99.90
19652;DHT22;9974;52.146;14.668;2024-02-15T09:52:49;11.40;99.90
19652;DHT22;9974;52.146;14.668;2024-02-15T09:55:15;11.30;99.90
19652;DHT22;9974;52.146;14.668;2024-02-15T09:57:41;11.30;99.90
19652;DHT22;9974;52.146;14.668;2024-02-15T10:00:08;11.30;99.90
19652;DHT22;9974;52.146;14.668;2024-02-15T10:02:39;11.30;99.90
19652;DHT22;9974;52.146;14.668;2024-02-15T10:05:05;11.40;99.90
19652;DHT22;9974;52.146;14.668;2024-02-15T10:07:37;11.50;99.90
19652;DHT22;9974;52.146;14.668;2024-02-15T10:10:24;11.40;99.90
19652;DHT22;9974;52.146;14.668;2024-02-15T10:12:52;11.50;99.90
19652;DHT22;9974;52.146;14.668;2024-02-15T10:15:31;11.40;99.90
19652;DHT22;9974;52.146;14.668;2024-02-15T10:20:26;11.90;99.90
19652;DHT22;9974;52.146;14.668;2024-02-15T10:22:52;11.40;99.90
19652;DHT22;9974;52.146;14.668;2024-02-15T10:25:25;11.50;99.90
19652;DHT22;9974;52.146;14.668;2024-02-15T10:27:52;11.40;99.90
19652;DHT22;9974;52.146;14.668;2024-02-15T10:30:27;11.60;99.90
19652;DHT22;9974;52.146;14.668;2024-02-15T10:32:54;11.60;99.90
19652;DHT22;9974;52.146;14.668;2024-02-15T10:35:22;11.90;99.90
19652;DHT22;9974;52.146;14.668;2024-02-15T10:37:48;12.00;99.90
19652;DHT22;9974;52.146;14.668;2024-02-15T10:40:20;12.00;99.90
19652;DHT22;9974;52.146;14.668;2024-02-15T10:42:48;12.10;99.90
19652;DHT22;9974;52.146;14.668;2024-02-15T10:45:16;12.10;99.90
19652;DHT22;9974;52.146;14.668;2024-02-15T10:47:45;12.10;99.90
19652;DHT22;9974;52.146;14.668;2024-02-15T10:50:13;12.20;99.90
19652;DHT22;9974;52.146;14.668;2024-02-15T10:52:42;12.20;99.90
19652;DHT22;9974;52.146;14.668;2024-02-15T10:55:11;12.10;99.90
19652;DHT22;9974;52.146;14.668;2024-02-15T10:57:39;12.00;99.90
19652;DHT22;9974;52.146;14.668;2024-02-15T11:00:08;12.10;99.90
19652;DHT22;9974;52.146;14.668;2024-02-15T11:02:38;11.90;99.90
19652;DHT22;9974;52.146;14.668;2024-02-15T11:05:08;12.00;99.90
19652;DHT22;9974;52.146;14.668;2024-02-15T11:07:35;12.10;99.90
19652;DHT22;9974;52.146;14.668;2024-02-15T11:10:02;12.10;99.90
19652;DHT22;9974;52.146;14.668;2024-02-15T11:12:33;12.10;99.90
19652;DHT22;9974;52.146;14.668;2024-02-15T11:14:58;12.30;99.90
19652;DHT22;9974;52.146;14.668;2024-02-15T11:20:02;12.20;99.90
19652;DHT22;9974;52.146;14.668;2024-02-15T11:22:33;12.30;99.90
19652;DHT22;9974;52.146;14.668;2024-02-15T11:25:02;12.40;99.90
19652;DHT22;9974;52.146;14.668;2024-02-15T11:27:35;12.40;99.90
19652;DHT22;9974;52.146;14.668;2024-02-15T11:30:02;12.40;99.90
19652;DHT22;9974;52.146;14.668;2024-02-15T11:32:47;12.40;99.90
19652;DHT22;9974;52.146;14.668;2024-02-15T11:40:14;12.50;99.90
19652;DHT22;9974;52.146;14.668;2024-02-15T11:42:42;12.50;99.90
19652;DHT22;9974;52.146;14.668;2024-02-15T11:45:11;12.60;99.90
19652;DHT22;9974;52.146;14.668;2024-02-15T11:47:37;12.60;99.90
19652;DHT22;9974;52.146;14.668;2024-02-15T11:50:10;12.70;99.90
19652;DHT22;9974;52.146;14.668;2024-02-15T11:52:49;12.70;99.90
19652;DHT22;9974;52.146;14.668;2024-02-15T11:55:19;12.80;99.90
19652;DHT22;9974;52.146;14.668;2024-02-15T11:57:56;13.00;99.90
19652;DHT22;9974;52.146;14.668;2024-02-15T12:00:30;13.00;99.90
19652;DHT22;9974;52.146;14.668;2024-02-15T12:03:14;13.10;99.90
19652;DHT22;9974;52.146;14.668;2024-02-15T12:05:59;13.10;99.90
19652;DHT22;9974;52.146;14.668;2024-02-15T12:08:44;13.20;99.90
19652;DHT22;9974;52.146;14.668;2024-02-15T12:11:28;13.30;99.90
19652;DHT22;9974;52.146;14.668;2024-02-15T12:14:13;13.40;99.90
19652;DHT22;9974;52.146;14.668;2024-02-15T12:16:59;13.40;99.90
19652;DHT22;9974;52.146;14.668;2024-02-15T12:19:53;13.60;99.90
19652;DHT22;9974;52.146;14.668;2024-02-15T12:22:28;13.60;99.90
19652;DHT22;9974;52.146;14.668;2024-02-15T12:24:59;13.50;99.90
19652;DHT22;9974;52.146;14.668;2024-02-15T12:27:26;13.60;99.90
19652;DHT22;9974;52.146;14.668;2024-02-15T12:32:26;13.80;99.90
19652;DHT22;9974;52.146;14.668;2024-02-15T12:34:52;13.70;99.90
19652;DHT22;9974;52.146;14.668;2024-02-15T12:37:21;13.70;99.90
19652;DHT22;9974;52.146;14.668;2024-02-15T12:39:49;13.70;99.90
19652;DHT22;9974;52.146;14.668;2024-02-15T12:42:15;13.50;99.90
19652;DHT22;9974;52.146;14.668;2024-02-15T12:44:46;13.50;99.90
19652;DHT22;9974;52.146;14.668;2024-02-15T12:47:21;13.40;99.90
19652;DHT22;9974;52.146;14.668;2024-02-15T12:49:47;13.40;99.90
19652;DHT22;9974;52.146;14.668;2024-02-15T12:55:37;13.60;99.90
19652;DHT22;9974;52.146;14.668;2024-02-15T12:57:59;13.90;99.90
19652;DHT22;9974;52.146;14.668;2024-02-15T13:00:29;13.80;99.90
19652;DHT22;9974;52.146;14.668;2024-02-15T13:03:04;13.60;99.90
19652;DHT22;9974;52.146;14.668;2024-02-15T13:05:30;13.50;99.90
19652;DHT22;9974;52.146;14.668;2024-02-15T13:07:56;13.40;99.90
19652;DHT22;9974;52.146;14.668;2024-02-15T13:10:30;13.40;99.90
19652;DHT22;9974;52.146;14.668;2024-02-15T13:12:57;13.40;99.90
19652;DHT22;9974;52.146;14.668;2024-02-15T13:15:23;13.50;99.90
19652;DHT22;9974;52.146;14.668;2024-02-15T13:17:53;13.60;99.90
19652;DHT22;9974;52.146;14.668;2024-02-15T13:20:19;13.60;99.90
19652;DHT22;9974;52.146;14.668;2024-02-15T13:22:52;13.50;99.90
19652;DHT22;9974;52.146;14.668;2024-02-15T13:25:19;13.60;99.90
19652;DHT22;9974;52.146;14.668;2024-02-15T13:27:46;13.70;99.90
19652;DHT22;9974;52.146;14.668;2024-02-15T13:30:12;13.60;99.90
19652;DHT22;9974;52.146;14.668;2024-02-15T13:32:40;13.60;99.90
19652;DHT22;9974;52.146;14.668;2024-02-15T13:35:10;13.60;99.90
19652;DHT22;9974;52.146;14.668;2024-02-15T13:37:42;13.60;99.90
19652;DHT22;9974;52.146;14.668;2024-02-15T13:40:19;13.60;99.90
19652;DHT22;9974;52.146;14.668;2024-02-15T13:42:49;13.70;99.90
19652;DHT22;9974;52.146;14.668;2024-02-15T13:47:48;13.80;99.90
19652;DHT22;9974;52.146;14.668;2024-02-15T13:50:14;13.70;99.90
19652;DHT22;9974;52.146;14.668;2024-02-15T13:52:40;13.70;99.90
19652;DHT22;9974;52.146;14.668;2024-02-15T13:55:27;13.70;99.90
19652;DHT22;9974;52.146;14.668;2024-02-15T13:57:54;13.70;99.90
19652;DHT22;9974;52.146;14.668;2024-02-15T14:00:24;13.70;99.90
19652;DHT22;9974;52.146;14.668;2024-02-15T14:02:59;13.60;99.90
19652;DHT22;9974;52.146;14.668;2024-02-15T14:05:29;13.70;99.90
19652;DHT22;9974;52.146;14.668;2024-02-15T14:07:55;13.60;99.90
19652;DHT22;9974;52.146;14.668;2024-02-15T14:10:22;13.60;99.90
19652;DHT22;9974;52.146;14.668;2024-02-15T14:12:48;13.60;99.90
19652;DHT22;9974;52.146;14.668;2024-02-15T14:15:14;13.60;99.90
19652;DHT22;9974;52.146;14.668;2024-02-15T14:17:40;13.70;99.90
19652;DHT22;9974;52.146;14.668;2024-02-15T14:20:06;13.60;99.90
19652;DHT22;9974;52.146;14.668;2024-02-15T14:22:34;13.50;99.90
19652;DHT22;9974;52.146;14.668;2024-02-15T14:25:00;13.50;99.90
19652;DHT22;9974;52.146;14.668;2024-02-15T14:27:26;13.40;99.90
19652;DHT22;9974;52.146;14.668;2024-02-15T14:29:52;13.40;99.90
19652;DHT22;9974;52.146;14.668;2024-02-15T14:32:36;13.30;99.90
19652;DHT22;9974;52.146;14.668;2024-02-15T14:35:20;13.30;99.90
19652;DHT22;9974;52.146;14.668;2024-02-15T14:37:46;13.20;99.90
19652;DHT22;9974;52.146;14.668;2024-02-15T14:40:12;13.20;99.90
19652;DHT22;9974;52.146;14.668;2024-02-15T14:42:41;13.20;99.90
19652;DHT22;9974;52.146;14.668;2024-02-15T14:45:10;13.20;99.90
19652;DHT22;9974;52.146;14.668;2024-02-15T14:47:37;13.20;99.90
19652;DHT22;9974;52.146;14.668;2024-02-15T14:50:03;13.20;99.90
19652;DHT22;9974;52.146;14.668;2024-02-15T14:52:29;13.10;99.90
19652;DHT22;9974;52.146;14.668;2024-02-15T14:54:56;13.10;99.90
19652;DHT22;9974;52.146;14.668;2024-02-15T14:57:22;13.10;99.90
19652;DHT22;9974;52.146;14.668;2024-02-15T14:59:49;13.10;99.90
19652;DHT22;9974;52.146;14.668;2024-02-15T15:02:15;13.10;99.90
19652;DHT22;9974;52.146;14.668;2024-02-15T15:04:41;13.10;99.90
19652;DHT22;9974;52.146;14.668;2024-02-15T15:07:23;13.10;99.90
19652;DHT22;9974;52.146;14.668;2024-02-15T15:10:07;13.00;99.90
19652;DHT22;9974;52.146;14.668;2024-02-15T15:15:17;12.90;99.90
19652;DHT22;9974;52.146;14.668;2024-02-15T15:17:46;12.90;99.90
19652;DHT22;9974;52.146;14.668;2024-02-15T15:20:12;12.90;99.90
19652;DHT22;9974;52.146;14.668;2024-02-15T15:22:38;12.90;99.90
19652;DHT22;9974;52.146;14.668;2024-02-15T15:25:04;12.80;99.90
19652;DHT22;9974;52.146;14.668;2024-02-15T15:27:30;12.80;99.90
19652;DHT22;9974;52.146;14.668;2024-02-15T15:29:56;12.80;99.90
19652;DHT22;9974;52.146;14.668;2024-02-15T15:32:22;12.80;99.90
19652;DHT22;9974;52.146;14.668;2024-02-15T15:34:48;12.70;99.90
19652;DHT22;9974;52.146;14.668;2024-02-15T15:37:14;12.70;99.90
19652;DHT22;9974;52.146;14.668;2024-02-15T15:39:41;12.60;99.90
19652;DHT22;9974;52.146;14.668;2024-02-15T15:42:07;12.60;99.90
19652;DHT22;9974;52.146;14.668;2024-02-15T15:44:33;12.50;99.90
19652;DHT22;9974;52.146;14.668;2024-02-15T15:46:59;12.50;99.90
19652;DHT22;9974;52.146;14.668;2024-02-15T15:49:25;12.50;99.90
19652;DHT22;9974;52.146;14.668;2024-02-15T15:51:51;12.50;99.90
19652;DHT22;9974;52.146;14.668;2024-02-15T15:54:18;12.50;99.90
19652;DHT22;9974;52.146;14.668;2024-02-15T15:56:47;12.50;99.90
19652;DHT22;9974;52.146;14.668;2024-02-15T15:59:13;12.50;99.90
19652;DHT22;9974;52.146;14.668;2024-02-15T16:01:46;12.50;99.90
19652;DHT22;9974;52.146;14.668;2024-02-15T16:04:13;12.40;99.90
19652;DHT22;9974;52.146;14.668;2024-02-15T16:06:38;12.40;99.90
19652;DHT22;9974;52.146;14.668;2024-02-15T16:09:06;12.30;99.90
19652;DHT22;9974;52.146;14.668;2024-02-15T16:11:34;12.40;99.90
19652;DHT22;9974;52.146;14.668;2024-02-15T16:13:59;12.30;99.90
19652;DHT22;9974;52.146;14.668;2024-02-15T16:16:25;12.30;99.90
19652;DHT22;9974;52.146;14.668;2024-02-15T16:18:51;12.30;99.90
19652;DHT22;9974;52.146;14.668;2024-02-15T16:21:16;12.20;99.90